sensor_id;sensor_type;location;lat;lon;timestamp;P1;durP1;ratioP1;P2;durP2;ratioP2
63836;SDS011;49991;50.518;30.486;2022-07-29T00:01:49;6.78;;;3.50;;
63836;SDS011;49991;50.518;30.486;2022-07-29T00:04:17;4.07;;;3.10;;
63836;SDS011;49991;50.518;30.486;2022-07-29T00:06:44;4.22;;;3.45;;
63836;SDS011;49991;50.518;30.486;2022-07-29T00:09:11;3.83;;;3.20;;
63836;SDS011;49991;50.518;30.486;2022-07-29T00:11:38;3.67;;;2.90;;
63836;SDS011;49991;50.518;30.486;2022-07-29T00:14:04;4.43;;;2.70;;
63836;SDS011;49991;50.518;30.486;2022-07-29T00:16:33;4.13;;;2.85;;
63836;SDS011;49991;50.518;30.486;2022-07-29T00:18:59;4.38;;;3.05;;
63836;SDS011;49991;50.518;30.486;2022-07-29T00:21:26;4.25;;;3.13;;
63836;SDS011;49991;50.518;30.486;2022-07-29T00:23:53;3.92;;;2.70;;
63836;SDS011;49991;50.518;30.486;2022-07-29T00:26:19;4.25;;;3.00;;
63836;SDS011;49991;50.518;30.486;2022-07-29T00:28:46;3.88;;;3.08;;
63836;SDS011;49991;50.518;30.486;2022-07-29T00:31:13;4.97;;;3.60;;
63836;SDS011;49991;50.518;30.486;2022-07-29T00:33:41;4.53;;;3.40;;
63836;SDS011;49991;50.518;30.486;2022-07-29T00:36:08;5.53;;;3.40;;
63836;SDS011;49991;50.518;30.486;2022-07-29T00:38:33;4.05;;;3.50;;
63836;SDS011;49991;50.518;30.486;2022-07-29T00:41:00;4.35;;;3.70;;
63836;SDS011;49991;50.518;30.486;2022-07-29T00:43:27;5.43;;;3.35;;
63836;SDS011;49991;50.518;30.486;2022-07-29T00:45:54;4.90;;;3.70;;
63836;SDS011;49991;50.518;30.486;2022-07-29T00:48:20;4.55;;;3.13;;
63836;SDS011;49991;50.518;30.486;2022-07-29T00:50:48;3.33;;;3.00;;
63836;SDS011;49991;50.518;30.486;2022-07-29T00:53:15;4.68;;;3.10;;
63836;SDS011;49991;50.518;30.486;2022-07-29T00:55:42;3.15;;;2.85;;
63836;SDS011;49991;50.518;30.486;2022-07-29T00:58:09;4.47;;;3.50;;
63836;SDS011;49991;50.518;30.486;2022-07-29T01:00:38;5.60;;;3.13;;
63836;SDS011;49991;50.518;30.486;2022-07-29T01:03:05;3.50;;;3.08;;
63836;SDS011;49991;50.518;30.486;2022-07-29T01:05:32;4.18;;;3.20;;
63836;SDS011;49991;50.518;30.486;2022-07-29T01:08:02;4.60;;;2.97;;
63836;SDS011;49991;50.518;30.486;2022-07-29T01:10:29;4.75;;;3.22;;
63836;SDS011;49991;50.518;30.486;2022-07-29T01:12:57;4.38;;;3.20;;
63836;SDS011;49991;50.518;30.486;2022-07-29T01:15:25;3.45;;;3.15;;
63836;SDS011;49991;50.518;30.486;2022-07-29T01:17:54;4.15;;;3.08;;
63836;SDS011;49991;50.518;30.486;2022-07-29T01:20:29;4.95;;;3.55;;
63836;SDS011;49991;50.518;30.486;2022-07-29T01:23:11;5.57;;;3.15;;
63836;SDS011;49991;50.518;30.486;2022-07-29T01:25:59;3.83;;;3.25;;
63836;SDS011;49991;50.518;30.486;2022-07-29T01:28:44;3.78;;;3.42;;
63836;SDS011;49991;50.518;30.486;2022-07-29T01:31:19;6.90;;;3.22;;
63836;SDS011;49991;50.518;30.486;2022-07-29T01:33:50;4.55;;;3.33;;
63836;SDS011;49991;50.518;30.486;2022-07-29T01:36:29;3.45;;;3.15;;
63836;SDS011;49991;50.518;30.486;2022-07-29T01:39:00;6.05;;;3.20;;
63836;SDS011;49991;50.518;30.486;2022-07-29T01:41:32;3.58;;;2.92;;
63836;SDS011;49991;50.518;30.486;2022-07-29T01:44:07;4.32;;;3.08;;
63836;SDS011;49991;50.518;30.486;2022-07-29T01:46:40;6.10;;;3.95;;
63836;SDS011;49991;50.518;30.486;2022-07-29T01:49:11;4.93;;;3.25;;
63836;SDS011;49991;50.518;30.486;2022-07-29T01:51:43;6.00;;;3.80;;
63836;SDS011;49991;50.518;30.486;2022-07-29T01:54:14;3.53;;;3.22;;
63836;SDS011;49991;50.518;30.486;2022-07-29T01:56:47;5.03;;;3.50;;
63836;SDS011;49991;50.518;30.486;2022-07-29T01:59:18;5.07;;;3.50;;
63836;SDS011;49991;50.518;30.486;2022-07-29T02:01:48;4.45;;;3.70;;
63836;SDS011;49991;50.518;30.486;2022-07-29T02:04:18;5.68;;;3.90;;
63836;SDS011;49991;50.518;30.486;2022-07-29T02:06:47;8.40;;;4.07;;
63836;SDS011;49991;50.518;30.486;2022-07-29T02:09:17;4.40;;;4.00;;
63836;SDS011;49991;50.518;30.486;2022-07-29T02:11:47;5.95;;;4.53;;
63836;SDS011;49991;50.518;30.486;2022-07-29T02:14:19;7.05;;;4.57;;
63836;SDS011;49991;50.518;30.486;2022-07-29T02:16:48;6.35;;;4.57;;
63836;SDS011;49991;50.518;30.486;2022-07-29T02:19:19;6.00;;;4.50;;
63836;SDS011;49991;50.518;30.486;2022-07-29T02:21:50;5.10;;;4.60;;
63836;SDS011;49991;50.518;30.486;2022-07-29T02:24:20;10.07;;;4.88;;
63836;SDS011;49991;50.518;30.486;2022-07-29T02:26:49;5.55;;;4.93;;
63836;SDS011;49991;50.518;30.486;2022-07-29T02:29:20;5.85;;;4.55;;
63836;SDS011;49991;50.518;30.486;2022-07-29T02:31:48;5.50;;;4.47;;
63836;SDS011;49991;50.518;30.486;2022-07-29T02:34:22;6.38;;;4.40;;
63836;SDS011;49991;50.518;30.486;2022-07-29T02:36:50;7.85;;;4.43;;
63836;SDS011;49991;50.518;30.486;2022-07-29T02:39:20;5.35;;;4.40;;
63836;SDS011;49991;50.518;30.486;2022-07-29T02:41:50;5.78;;;4.50;;
63836;SDS011;49991;50.518;30.486;2022-07-29T02:44:23;7.40;;;4.80;;
63836;SDS011;49991;50.518;30.486;2022-07-29T02:46:52;4.85;;;4.35;;
63836;SDS011;49991;50.518;30.486;2022-07-29T02:49:27;4.75;;;4.28;;
63836;SDS011;49991;50.518;30.486;2022-07-29T02:52:01;5.75;;;4.50;;
63836;SDS011;49991;50.518;30.486;2022-07-29T02:54:31;5.53;;;4.20;;
63836;SDS011;49991;50.518;30.486;2022-07-29T02:57:11;4.03;;;3.72;;
63836;SDS011;49991;50.518;30.486;2022-07-29T02:59:45;6.22;;;3.80;;
63836;SDS011;49991;50.518;30.486;2022-07-29T03:02:16;4.40;;;4.00;;
63836;SDS011;49991;50.518;30.486;2022-07-29T03:04:43;6.72;;;3.53;;
63836;SDS011;49991;50.518;30.486;2022-07-29T03:07:13;4.03;;;3.38;;
63836;SDS011;49991;50.518;30.486;2022-07-29T03:09:44;4.38;;;3.35;;
63836;SDS011;49991;50.518;30.486;2022-07-29T03:12:12;4.15;;;3.30;;
63836;SDS011;49991;50.518;30.486;2022-07-29T03:14:41;3.60;;;3.22;;
63836;SDS011;49991;50.518;30.486;2022-07-29T03:17:10;3.92;;;3.30;;
63836;SDS011;49991;50.518;30.486;2022-07-29T03:19:38;5.30;;;3.38;;
63836;SDS011;49991;50.518;30.486;2022-07-29T03:22:05;5.20;;;3.67;;
63836;SDS011;49991;50.518;30.486;2022-07-29T03:24:33;4.40;;;3.33;;
63836;SDS011;49991;50.518;30.486;2022-07-29T03:27:01;4.95;;;3.42;;
63836;SDS011;49991;50.518;30.486;2022-07-29T03:29:29;4.50;;;3.60;;
63836;SDS011;49991;50.518;30.486;2022-07-29T03:31:56;4.20;;;3.25;;
63836;SDS011;49991;50.518;30.486;2022-07-29T03:34:24;5.32;;;3.72;;
63836;SDS011;49991;50.518;30.486;2022-07-29T03:36:51;6.05;;;3.90;;
63836;SDS011;49991;50.518;30.486;2022-07-29T03:39:19;5.55;;;3.47;;
63836;SDS011;49991;50.518;30.486;2022-07-29T03:41:49;5.63;;;4.18;;
63836;SDS011;49991;50.518;30.486;2022-07-29T03:44:19;5.57;;;3.65;;
63836;SDS011;49991;50.518;30.486;2022-07-29T03:46:48;5.60;;;3.97;;
63836;SDS011;49991;50.518;30.486;2022-07-29T03:49:16;4.13;;;3.65;;
63836;SDS011;49991;50.518;30.486;2022-07-29T03:51:47;8.27;;;3.80;;
63836;SDS011;49991;50.518;30.486;2022-07-29T03:54:14;5.07;;;3.78;;
63836;SDS011;49991;50.518;30.486;2022-07-29T03:56:42;5.50;;;3.65;;
63836;SDS011;49991;50.518;30.486;2022-07-29T03:59:11;9.60;;;4.10;;
63836;SDS011;49991;50.518;30.486;2022-07-29T04:01:41;5.53;;;3.60;;
63836;SDS011;49991;50.518;30.486;2022-07-29T04:04:08;3.95;;;3.42;;
63836;SDS011;49991;50.518;30.486;2022-07-29T04:06:39;6.68;;;3.50;;
63836;SDS011;49991;50.518;30.486;2022-07-29T04:09:07;7.25;;;3.80;;
63836;SDS011;49991;50.518;30.486;2022-07-29T04:11:35;3.90;;;3.50;;
63836;SDS011;49991;50.518;30.486;2022-07-29T04:14:02;4.40;;;3.80;;
63836;SDS011;49991;50.518;30.486;2022-07-29T04:16:29;5.60;;;3.60;;
63836;SDS011;49991;50.518;30.486;2022-07-29T04:18:56;3.47;;;3.17;;
63836;SDS011;49991;50.518;30.486;2022-07-29T04:21:22;4.47;;;3.55;;
63836;SDS011;49991;50.518;30.486;2022-07-29T04:23:49;7.32;;;4.15;;
63836;SDS011;49991;50.518;30.486;2022-07-29T04:26:17;6.30;;;3.70;;
63836;SDS011;49991;50.518;30.486;2022-07-29T04:28:45;4.97;;;3.70;;
63836;SDS011;49991;50.518;30.486;2022-07-29T04:31:12;7.00;;;4.20;;
63836;SDS011;49991;50.518;30.486;2022-07-29T04:33:39;5.60;;;3.60;;
63836;SDS011;49991;50.518;30.486;2022-07-29T04:36:06;4.90;;;3.75;;
63836;SDS011;49991;50.518;30.486;2022-07-29T04:38:32;6.88;;;4.57;;
63836;SDS011;49991;50.518;30.486;2022-07-29T04:40:59;6.32;;;4.10;;
63836;SDS011;49991;50.518;30.486;2022-07-29T04:43:27;4.65;;;3.75;;
63836;SDS011;49991;50.518;30.486;2022-07-29T04:45:54;5.07;;;3.72;;
63836;SDS011;49991;50.518;30.486;2022-07-29T04:48:21;9.05;;;4.00;;
63836;SDS011;49991;50.518;30.486;2022-07-29T04:50:47;6.72;;;3.80;;
63836;SDS011;49991;50.518;30.486;2022-07-29T04:53:14;4.25;;;3.78;;
63836;SDS011;49991;50.518;30.486;2022-07-29T04:55:40;6.10;;;4.93;;
63836;SDS011;49991;50.518;30.486;2022-07-29T04:58:07;5.90;;;3.88;;
63836;SDS011;49991;50.518;30.486;2022-07-29T05:00:35;5.38;;;3.90;;
63836;SDS011;49991;50.518;30.486;2022-07-29T05:03:02;6.38;;;3.70;;
63836;SDS011;49991;50.518;30.486;2022-07-29T05:05:29;5.68;;;3.80;;
63836;SDS011;49991;50.518;30.486;2022-07-29T05:07:56;5.32;;;3.78;;
63836;SDS011;49991;50.518;30.486;2022-07-29T05:10:22;4.28;;;3.72;;
63836;SDS011;49991;50.518;30.486;2022-07-29T05:12:49;4.60;;;3.78;;
63836;SDS011;49991;50.518;30.486;2022-07-29T05:15:16;7.63;;;3.80;;
63836;SDS011;49991;50.518;30.486;2022-07-29T05:17:45;4.72;;;3.72;;
63836;SDS011;49991;50.518;30.486;2022-07-29T05:20:11;4.97;;;3.65;;
63836;SDS011;49991;50.518;30.486;2022-07-29T05:22:38;5.90;;;3.78;;
63836;SDS011;49991;50.518;30.486;2022-07-29T05:25:05;5.45;;;3.33;;
63836;SDS011;49991;50.518;30.486;2022-07-29T05:27:33;3.67;;;3.15;;
63836;SDS011;49991;50.518;30.486;2022-07-29T05:30:01;5.38;;;3.15;;
63836;SDS011;49991;50.518;30.486;2022-07-29T05:32:28;4.38;;;3.17;;
63836;SDS011;49991;50.518;30.486;2022-07-29T05:34:56;3.45;;;2.90;;
63836;SDS011;49991;50.518;30.486;2022-07-29T05:37:22;3.63;;;2.97;;
63836;SDS011;49991;50.518;30.486;2022-07-29T05:39:49;3.17;;;2.88;;
63836;SDS011;49991;50.518;30.486;2022-07-29T05:42:15;3.20;;;2.90;;
63836;SDS011;49991;50.518;30.486;2022-07-29T05:44:42;2.72;;;2.53;;
63836;SDS011;49991;50.518;30.486;2022-07-29T05:47:09;4.13;;;2.83;;
63836;SDS011;49991;50.518;30.486;2022-07-29T05:49:36;3.75;;;2.80;;
63836;SDS011;49991;50.518;30.486;2022-07-29T05:52:05;3.30;;;2.85;;
63836;SDS011;49991;50.518;30.486;2022-07-29T05:54:31;3.50;;;2.75;;
63836;SDS011;49991;50.518;30.486;2022-07-29T05:56:58;2.72;;;2.53;;
63836;SDS011;49991;50.518;30.486;2022-07-29T05:59:25;2.97;;;2.65;;
63836;SDS011;49991;50.518;30.486;2022-07-29T06:01:51;3.22;;;2.72;;
63836;SDS011;49991;50.518;30.486;2022-07-29T06:04:18;2.60;;;2.40;;
63836;SDS011;49991;50.518;30.486;2022-07-29T06:06:45;4.35;;;2.97;;
63836;SDS011;49991;50.518;30.486;2022-07-29T06:09:13;3.25;;;2.70;;
63836;SDS011;49991;50.518;30.486;2022-07-29T06:11:40;3.00;;;2.58;;
63836;SDS011;49991;50.518;30.486;2022-07-29T06:14:06;2.92;;;2.65;;
63836;SDS011;49991;50.518;30.486;2022-07-29T06:16:33;3.22;;;2.50;;
63836;SDS011;49991;50.518;30.486;2022-07-29T06:19:00;2.75;;;2.55;;
63836;SDS011;49991;50.518;30.486;2022-07-29T06:21:27;4.03;;;2.63;;
63836;SDS011;49991;50.518;30.486;2022-07-29T06:23:53;6.43;;;2.70;;
63836;SDS011;49991;50.518;30.486;2022-07-29T06:26:21;2.88;;;2.63;;
63836;SDS011;49991;50.518;30.486;2022-07-29T06:28:48;2.42;;;2.22;;
63836;SDS011;49991;50.518;30.486;2022-07-29T06:31:15;2.67;;;2.47;;
63836;SDS011;49991;50.518;30.486;2022-07-29T06:33:42;4.05;;;2.80;;
63836;SDS011;49991;50.518;30.486;2022-07-29T06:36:08;2.67;;;2.47;;
63836;SDS011;49991;50.518;30.486;2022-07-29T06:38:35;2.60;;;2.40;;
63836;SDS011;49991;50.518;30.486;2022-07-29T06:41:03;2.50;;;2.22;;
63836;SDS011;49991;50.518;30.486;2022-07-29T06:43:33;3.67;;;2.65;;
63836;SDS011;49991;50.518;30.486;2022-07-29T06:46:03;2.92;;;2.33;;
63836;SDS011;49991;50.518;30.486;2022-07-29T06:48:30;3.05;;;2.47;;
63836;SDS011;49991;50.518;30.486;2022-07-29T06:50:57;2.75;;;2.55;;
63836;SDS011;49991;50.518;30.486;2022-07-29T06:53:25;2.53;;;2.33;;
63836;SDS011;49991;50.518;30.486;2022-07-29T06:55:51;3.95;;;2.58;;
63836;SDS011;49991;50.518;30.486;2022-07-29T06:58:18;2.58;;;2.38;;
63836;SDS011;49991;50.518;30.486;2022-07-29T07:00:55;2.58;;;2.38;;
63836;SDS011;49991;50.518;30.486;2022-07-29T07:03:22;2.50;;;2.30;;
63836;SDS011;49991;50.518;30.486;2022-07-29T07:05:49;4.55;;;2.20;;
63836;SDS011;49991;50.518;30.486;2022-07-29T07:08:15;3.17;;;2.53;;
63836;SDS011;49991;50.518;30.486;2022-07-29T07:10:42;3.58;;;2.53;;
63836;SDS011;49991;50.518;30.486;2022-07-29T07:13:09;2.63;;;2.30;;
63836;SDS011;49991;50.518;30.486;2022-07-29T07:15:36;3.05;;;2.45;;
63836;SDS011;49991;50.518;30.486;2022-07-29T07:18:05;2.47;;;2.22;;
63836;SDS011;49991;50.518;30.486;2022-07-29T07:20:32;2.40;;;2.20;;
63836;SDS011;49991;50.518;30.486;2022-07-29T07:22:59;2.40;;;2.20;;
63836;SDS011;49991;50.518;30.486;2022-07-29T07:25:26;2.58;;;2.38;;
63836;SDS011;49991;50.518;30.486;2022-07-29T07:27:53;2.75;;;2.40;;
63836;SDS011;49991;50.518;30.486;2022-07-29T07:30:20;2.35;;;2.15;;
63836;SDS011;49991;50.518;30.486;2022-07-29T07:32:47;2.22;;;2.10;;
63836;SDS011;49991;50.518;30.486;2022-07-29T07:35:15;3.03;;;2.58;;
63836;SDS011;49991;50.518;30.486;2022-07-29T07:37:42;4.10;;;2.40;;
63836;SDS011;49991;50.518;30.486;2022-07-29T07:40:10;2.35;;;2.10;;
63836;SDS011;49991;50.518;30.486;2022-07-29T07:42:37;2.53;;;2.10;;
63836;SDS011;49991;50.518;30.486;2022-07-29T07:45:05;2.78;;;2.20;;
63836;SDS011;49991;50.518;30.486;2022-07-29T07:47:34;2.20;;;2.00;;
63836;SDS011;49991;50.518;30.486;2022-07-29T07:50:01;2.17;;;1.98;;
63836;SDS011;49991;50.518;30.486;2022-07-29T07:52:29;2.75;;;2.13;;
63836;SDS011;49991;50.518;30.486;2022-07-29T07:54:56;2.08;;;1.98;;
63836;SDS011;49991;50.518;30.486;2022-07-29T07:57:23;2.40;;;2.20;;
63836;SDS011;49991;50.518;30.486;2022-07-29T07:59:49;1.88;;;1.77;;
63836;SDS011;49991;50.518;30.486;2022-07-29T08:02:16;2.22;;;2.03;;
63836;SDS011;49991;50.518;30.486;2022-07-29T08:04:43;2.42;;;1.88;;
63836;SDS011;49991;50.518;30.486;2022-07-29T08:07:09;3.42;;;2.05;;
63836;SDS011;49991;50.518;30.486;2022-07-29T08:09:37;2.40;;;2.20;;
63836;SDS011;49991;50.518;30.486;2022-07-29T08:12:04;2.50;;;2.00;;
63836;SDS011;49991;50.518;30.486;2022-07-29T08:14:31;3.70;;;3.08;;
63836;SDS011;49991;50.518;30.486;2022-07-29T08:16:58;2.15;;;1.95;;
63836;SDS011;49991;50.518;30.486;2022-07-29T08:19:25;2.35;;;2.10;;
63836;SDS011;49991;50.518;30.486;2022-07-29T08:21:52;2.20;;;2.00;;
63836;SDS011;49991;50.518;30.486;2022-07-29T08:24:19;2.92;;;2.17;;
63836;SDS011;49991;50.518;30.486;2022-07-29T08:27:05;2.15;;;2.03;;
63836;SDS011;49991;50.518;30.486;2022-07-29T08:29:32;1.80;;;1.63;;
63836;SDS011;49991;50.518;30.486;2022-07-29T08:31:59;2.00;;;1.90;;
63836;SDS011;49991;50.518;30.486;2022-07-29T08:34:25;2.25;;;2.05;;
63836;SDS011;49991;50.518;30.486;2022-07-29T08:36:53;2.40;;;2.00;;
63836;SDS011;49991;50.518;30.486;2022-07-29T08:39:20;2.22;;;2.03;;
63836;SDS011;49991;50.518;30.486;2022-07-29T08:41:47;2.10;;;1.92;;
63836;SDS011;49991;50.518;30.486;2022-07-29T08:44:17;3.85;;;1.77;;
63836;SDS011;49991;50.518;30.486;2022-07-29T08:46:44;2.08;;;1.92;;
63836;SDS011;49991;50.518;30.486;2022-07-29T08:49:11;2.00;;;1.80;;
63836;SDS011;49991;50.518;30.486;2022-07-29T08:51:38;2.28;;;1.85;;
63836;SDS011;49991;50.518;30.486;2022-07-29T08:54:08;1.80;;;1.70;;
63836;SDS011;49991;50.518;30.486;2022-07-29T08:56:35;2.10;;;1.90;;
63836;SDS011;49991;50.518;30.486;2022-07-29T08:59:03;2.70;;;1.88;;
63836;SDS011;49991;50.518;30.486;2022-07-29T09:01:33;1.92;;;1.75;;
63836;SDS011;49991;50.518;30.486;2022-07-29T09:04:03;2.28;;;2.10;;
63836;SDS011;49991;50.518;30.486;2022-07-29T09:06:32;1.90;;;1.80;;
63836;SDS011;49991;50.518;30.486;2022-07-29T09:09:02;1.90;;;1.80;;
63836;SDS011;49991;50.518;30.486;2022-07-29T09:11:29;2.35;;;2.15;;
63836;SDS011;49991;50.518;30.486;2022-07-29T09:13:58;2.13;;;1.92;;
63836;SDS011;49991;50.518;30.486;2022-07-29T09:16:25;2.05;;;1.90;;
63836;SDS011;49991;50.518;30.486;2022-07-29T09:18:53;1.70;;;1.60;;
63836;SDS011;49991;50.518;30.486;2022-07-29T09:21:20;1.90;;;1.77;;
63836;SDS011;49991;50.518;30.486;2022-07-29T09:24:05;2.75;;;1.80;;
63836;SDS011;49991;50.518;30.486;2022-07-29T09:26:34;2.78;;;2.08;;
63836;SDS011;49991;50.518;30.486;2022-07-29T09:29:10;2.20;;;1.98;;
63836;SDS011;49991;50.518;30.486;2022-07-29T09:34:07;2.00;;;1.70;;
63836;SDS011;49991;50.518;30.486;2022-07-29T09:36:38;2.20;;;1.70;;
63836;SDS011;49991;50.518;30.486;2022-07-29T09:39:05;1.90;;;1.80;;
63836;SDS011;49991;50.518;30.486;2022-07-29T09:41:43;1.83;;;1.63;;
63836;SDS011;49991;50.518;30.486;2022-07-29T09:44:11;9.45;;;1.73;;
63836;SDS011;49991;50.518;30.486;2022-07-29T09:46:38;2.67;;;2.05;;
63836;SDS011;49991;50.518;30.486;2022-07-29T09:49:08;6.35;;;2.33;;
63836;SDS011;49991;50.518;30.486;2022-07-29T09:51:35;17.27;;;3.22;;
63836;SDS011;49991;50.518;30.486;2022-07-29T09:54:04;291.45;;;43.85;;
63836;SDS011;49991;50.518;30.486;2022-07-29T09:56:48;84.55;;;17.10;;
63836;SDS011;49991;50.518;30.486;2022-07-29T09:59:15;61.75;;;16.77;;
63836;SDS011;49991;50.518;30.486;2022-07-29T10:01:42;63.08;;;15.73;;
63836;SDS011;49991;50.518;30.486;2022-07-29T10:04:10;56.38;;;14.27;;
63836;SDS011;49991;50.518;30.486;2022-07-29T10:06:43;42.78;;;13.13;;
63836;SDS011;49991;50.518;30.486;2022-07-29T10:09:22;34.65;;;11.02;;
63836;SDS011;49991;50.518;30.486;2022-07-29T10:12:02;31.50;;;11.15;;
63836;SDS011;49991;50.518;30.486;2022-07-29T10:14:30;39.65;;;10.88;;
63836;SDS011;49991;50.518;30.486;2022-07-29T10:16:57;32.33;;;10.93;;
63836;SDS011;49991;50.518;30.486;2022-07-29T10:19:26;33.38;;;10.75;;
63836;SDS011;49991;50.518;30.486;2022-07-29T10:21:54;30.25;;;9.20;;
63836;SDS011;49991;50.518;30.486;2022-07-29T10:24:22;27.45;;;8.80;;
63836;SDS011;49991;50.518;30.486;2022-07-29T10:26:50;27.35;;;9.00;;
63836;SDS011;49991;50.518;30.486;2022-07-29T10:29:17;25.83;;;8.57;;
63836;SDS011;49991;50.518;30.486;2022-07-29T10:31:46;24.88;;;9.57;;
63836;SDS011;49991;50.518;30.486;2022-07-29T10:36:52;19.25;;;8.32;;
63836;SDS011;49991;50.518;30.486;2022-07-29T10:39:27;21.27;;;8.07;;
63836;SDS011;49991;50.518;30.486;2022-07-29T10:42:11;20.30;;;7.80;;
63836;SDS011;49991;50.518;30.486;2022-07-29T10:44:43;20.00;;;7.72;;
63836;SDS011;49991;50.518;30.486;2022-07-29T10:47:19;18.98;;;7.60;;
63836;SDS011;49991;50.518;30.486;2022-07-29T10:49:54;18.55;;;8.02;;
63836;SDS011;49991;50.518;30.486;2022-07-29T10:52:24;16.75;;;7.47;;
63836;SDS011;49991;50.518;30.486;2022-07-29T10:54:52;18.90;;;7.75;;
63836;SDS011;49991;50.518;30.486;2022-07-29T10:57:21;18.35;;;7.63;;
63836;SDS011;49991;50.518;30.486;2022-07-29T11:00:25;15.88;;;7.20;;
63836;SDS011;49991;50.518;30.486;2022-07-29T11:02:57;12.67;;;6.07;;
63836;SDS011;49991;50.518;30.486;2022-07-29T11:05:25;19.38;;;7.68;;
63836;SDS011;49991;50.518;30.486;2022-07-29T11:10:47;14.50;;;6.70;;
63836;SDS011;49991;50.518;30.486;2022-07-29T11:16:17;13.13;;;6.75;;
63836;SDS011;49991;50.518;30.486;2022-07-29T11:21:49;9.63;;;5.68;;
63836;SDS011;49991;50.518;30.486;2022-07-29T11:24:19;13.27;;;6.40;;
63836;SDS011;49991;50.518;30.486;2022-07-29T11:27:11;11.57;;;6.05;;
63836;SDS011;49991;50.518;30.486;2022-07-29T11:29:48;9.90;;;5.60;;
63836;SDS011;49991;50.518;30.486;2022-07-29T11:32:17;12.43;;;5.88;;
63836;SDS011;49991;50.518;30.486;2022-07-29T11:34:46;11.05;;;5.30;;
63836;SDS011;49991;50.518;30.486;2022-07-29T11:37:15;9.77;;;5.43;;
63836;SDS011;49991;50.518;30.486;2022-07-29T11:39:47;10.48;;;5.30;;
63836;SDS011;49991;50.518;30.486;2022-07-29T11:42:38;9.77;;;5.28;;
63836;SDS011;49991;50.518;30.486;2022-07-29T11:45:06;8.20;;;5.03;;
63836;SDS011;49991;50.518;30.486;2022-07-29T11:47:35;11.18;;;5.60;;
63836;SDS011;49991;50.518;30.486;2022-07-29T11:50:04;8.20;;;4.88;;
63836;SDS011;49991;50.518;30.486;2022-07-29T11:52:33;8.38;;;4.70;;
63836;SDS011;49991;50.518;30.486;2022-07-29T11:55:04;8.65;;;4.95;;
63836;SDS011;49991;50.518;30.486;2022-07-29T11:57:33;10.65;;;5.40;;
63836;SDS011;49991;50.518;30.486;2022-07-29T12:00:01;7.97;;;5.13;;
63836;SDS011;49991;50.518;30.486;2022-07-29T12:02:37;9.13;;;4.93;;
63836;SDS011;49991;50.518;30.486;2022-07-29T12:05:07;8.75;;;4.93;;
63836;SDS011;49991;50.518;30.486;2022-07-29T12:07:34;7.47;;;4.82;;
63836;SDS011;49991;50.518;30.486;2022-07-29T12:10:02;8.05;;;4.70;;
63836;SDS011;49991;50.518;30.486;2022-07-29T12:12:30;5.97;;;4.57;;
63836;SDS011;49991;50.518;30.486;2022-07-29T12:14:57;9.52;;;4.32;;
63836;SDS011;49991;50.518;30.486;2022-07-29T12:17:24;8.27;;;4.72;;
63836;SDS011;49991;50.518;30.486;2022-07-29T12:19:53;5.80;;;3.95;;
63836;SDS011;49991;50.518;30.486;2022-07-29T12:22:24;7.13;;;4.03;;
63836;SDS011;49991;50.518;30.486;2022-07-29T12:24:52;7.25;;;3.95;;
63836;SDS011;49991;50.518;30.486;2022-07-29T12:27:20;7.20;;;4.45;;
63836;SDS011;49991;50.518;30.486;2022-07-29T12:29:54;6.10;;;4.53;;
63836;SDS011;49991;50.518;30.486;2022-07-29T12:32:22;7.07;;;4.72;;
63836;SDS011;49991;50.518;30.486;2022-07-29T12:34:49;7.72;;;4.95;;
63836;SDS011;49991;50.518;30.486;2022-07-29T12:37:17;7.88;;;5.13;;
63836;SDS011;49991;50.518;30.486;2022-07-29T12:39:43;9.50;;;5.53;;
63836;SDS011;49991;50.518;30.486;2022-07-29T12:42:11;7.15;;;5.25;;
63836;SDS011;49991;50.518;30.486;2022-07-29T12:44:46;8.82;;;5.35;;
63836;SDS011;49991;50.518;30.486;2022-07-29T12:49:40;7.57;;;5.50;;
63836;SDS011;49991;50.518;30.486;2022-07-29T12:52:23;9.90;;;6.07;;
63836;SDS011;49991;50.518;30.486;2022-07-29T12:54:50;10.65;;;6.72;;
63836;SDS011;49991;50.518;30.486;2022-07-29T12:57:16;9.00;;;6.03;;
63836;SDS011;49991;50.518;30.486;2022-07-29T12:59:43;9.95;;;6.47;;
63836;SDS011;49991;50.518;30.486;2022-07-29T13:02:21;9.50;;;6.35;;
63836;SDS011;49991;50.518;30.486;2022-07-29T13:04:54;10.00;;;6.68;;
63836;SDS011;49991;50.518;30.486;2022-07-29T13:07:23;7.40;;;5.70;;
63836;SDS011;49991;50.518;30.486;2022-07-29T13:09:51;9.43;;;6.85;;
63836;SDS011;49991;50.518;30.486;2022-07-29T13:12:18;8.88;;;6.68;;
63836;SDS011;49991;50.518;30.486;2022-07-29T13:14:46;9.07;;;6.25;;
63836;SDS011;49991;50.518;30.486;2022-07-29T13:17:15;7.95;;;6.32;;
63836;SDS011;49991;50.518;30.486;2022-07-29T13:19:44;7.85;;;6.38;;
63836;SDS011;49991;50.518;30.486;2022-07-29T13:22:12;8.48;;;6.47;;
63836;SDS011;49991;50.518;30.486;2022-07-29T13:24:50;9.15;;;7.03;;
63836;SDS011;49991;50.518;30.486;2022-07-29T13:27:18;9.02;;;6.70;;
63836;SDS011;49991;50.518;30.486;2022-07-29T13:29:47;9.88;;;6.53;;
63836;SDS011;49991;50.518;30.486;2022-07-29T13:32:16;10.70;;;6.63;;
63836;SDS011;49991;50.518;30.486;2022-07-29T13:34:44;10.07;;;6.90;;
63836;SDS011;49991;50.518;30.486;2022-07-29T13:37:11;9.98;;;6.90;;
63836;SDS011;49991;50.518;30.486;2022-07-29T13:39:38;12.32;;;7.18;;
63836;SDS011;49991;50.518;30.486;2022-07-29T13:42:05;11.27;;;7.57;;
63836;SDS011;49991;50.518;30.486;2022-07-29T13:44:33;11.65;;;6.55;;
63836;SDS011;49991;50.518;30.486;2022-07-29T13:47:00;9.75;;;6.38;;
63836;SDS011;49991;50.518;30.486;2022-07-29T13:49:27;10.15;;;5.90;;
63836;SDS011;49991;50.518;30.486;2022-07-29T13:51:55;8.48;;;5.78;;
63836;SDS011;49991;50.518;30.486;2022-07-29T13:54:22;8.57;;;6.18;;
63836;SDS011;49991;50.518;30.486;2022-07-29T13:56:49;7.65;;;5.90;;
63836;SDS011;49991;50.518;30.486;2022-07-29T13:59:16;8.68;;;5.80;;
63836;SDS011;49991;50.518;30.486;2022-07-29T14:01:43;7.75;;;5.63;;
63836;SDS011;49991;50.518;30.486;2022-07-29T14:04:09;7.15;;;5.38;;
63836;SDS011;49991;50.518;30.486;2022-07-29T14:06:36;8.10;;;5.65;;
63836;SDS011;49991;50.518;30.486;2022-07-29T14:09:04;7.63;;;5.45;;
63836;SDS011;49991;50.518;30.486;2022-07-29T14:11:33;7.25;;;5.10;;
63836;SDS011;49991;50.518;30.486;2022-07-29T14:14:00;6.28;;;4.95;;
63836;SDS011;49991;50.518;30.486;2022-07-29T14:16:27;6.97;;;4.82;;
63836;SDS011;49991;50.518;30.486;2022-07-29T14:18:53;7.13;;;5.28;;
63836;SDS011;49991;50.518;30.486;2022-07-29T14:21:20;7.07;;;5.15;;
63836;SDS011;49991;50.518;30.486;2022-07-29T14:23:47;10.43;;;5.28;;
63836;SDS011;49991;50.518;30.486;2022-07-29T14:26:15;7.35;;;5.18;;
63836;SDS011;49991;50.518;30.486;2022-07-29T14:28:41;7.38;;;5.63;;
63836;SDS011;49991;50.518;30.486;2022-07-29T14:31:08;7.32;;;5.07;;
63836;SDS011;49991;50.518;30.486;2022-07-29T14:33:35;6.72;;;5.20;;
63836;SDS011;49991;50.518;30.486;2022-07-29T14:36:02;7.28;;;5.75;;
63836;SDS011;49991;50.518;30.486;2022-07-29T14:38:29;8.10;;;5.82;;
63836;SDS011;49991;50.518;30.486;2022-07-29T14:40:56;7.45;;;5.60;;
63836;SDS011;49991;50.518;30.486;2022-07-29T14:43:24;7.80;;;5.13;;
63836;SDS011;49991;50.518;30.486;2022-07-29T14:45:51;8.10;;;5.20;;
63836;SDS011;49991;50.518;30.486;2022-07-29T14:48:17;7.80;;;5.20;;
63836;SDS011;49991;50.518;30.486;2022-07-29T14:50:44;6.85;;;5.22;;
63836;SDS011;49991;50.518;30.486;2022-07-29T14:53:11;6.75;;;5.20;;
63836;SDS011;49991;50.518;30.486;2022-07-29T14:55:38;6.07;;;5.13;;
63836;SDS011;49991;50.518;30.486;2022-07-29T14:58:05;5.72;;;4.85;;
63836;SDS011;49991;50.518;30.486;2022-07-29T15:00:33;7.20;;;5.15;;